Terminal Aerodrome Forecast
Issued by NWS Tuscon, AZ

Current Version | Previous Version | Text Only | Print | Product List | Glossary On
Versions: 1 2 3 4 5 6 7 8 9 10 11 12 13 14 15 16 17
884
FTUS45 KTWC 231137
TAFDUG
TAF
KDUG 231137Z 2312/2412 14008KT P6SM SCT120 BKN250
     FM231800 30007KT P6SM SCT080
     FM232000 31012G20KT P6SM SCT070 SCT110
     FM232300 28012KT P6SM SCT070 BKN110
     FM240400 20009KT P6SM FEW070 SCT110 BKN250=

USA.gov is the U.S. government's official web portal to all federal, state and local government web resources and services.